createdAt,value
2019-04-03T00:00:18.256Z,27.30
2019-04-03T00:02:49.318Z,27.40
2019-04-03T00:05:20.179Z,27.40
2019-04-03T00:07:55.298Z,27.40
2019-04-03T00:10:26.414Z,27.50
2019-04-03T00:12:59.910Z,27.50
2019-04-03T00:15:30.870Z,27.50
2019-04-03T00:18:03.275Z,27.60
2019-04-03T00:20:34.378Z,27.70
2019-04-03T00:23:05.394Z,27.70
2019-04-03T00:25:37.749Z,27.80
2019-04-03T00:28:19.298Z,27.80
2019-04-03T00:30:52.437Z,27.90
2019-04-03T00:33:26.695Z,28.00
2019-04-03T00:35:57.962Z,28.00
2019-04-03T00:38:29.178Z,28.10
2019-04-03T00:41:00.235Z,28.10
2019-04-03T00:43:33.730Z,28.10
2019-04-03T00:46:05.213Z,28.10
2019-04-03T00:48:36.130Z,28.20
2019-04-03T00:57:17.555Z,28.40
2019-04-03T00:59:50.819Z,28.50
2019-04-03T01:02:22.181Z,28.50
2019-04-03T01:04:53.019Z,28.60
2019-04-03T01:07:24.059Z,28.60
2019-04-03T01:09:55.105Z,28.70
2019-04-03T01:12:26.224Z,28.80
2019-04-03T01:14:57.348Z,28.90
2019-04-03T01:17:30.736Z,28.90
2019-04-03T01:20:02.511Z,29.00
2019-04-03T01:22:33.855Z,29.00
2019-04-03T01:25:08.106Z,29.10
2019-04-03T01:27:41.312Z,29.20
2019-04-03T01:30:13.488Z,29.20
2019-04-03T01:32:45.954Z,29.30
2019-04-03T01:35:19.587Z,29.40
2019-04-03T01:37:51.948Z,29.40
2019-04-03T01:40:26.570Z,29.40
2019-04-03T01:43:11.269Z,29.50
2019-04-03T01:45:47.620Z,29.50
2019-04-03T01:48:21.174Z,29.60
2019-04-03T01:50:53.970Z,29.50
2019-04-03T01:53:27.475Z,29.60
2019-04-03T01:55:59.376Z,29.60
2019-04-03T01:58:31.049Z,29.70
2019-04-03T02:01:08.063Z,29.70
2019-04-03T02:03:41.695Z,29.80
2019-04-03T02:06:14.122Z,29.80
2019-04-03T02:08:45.566Z,29.90
2019-04-03T02:11:18.452Z,29.90
2019-04-03T02:13:54.762Z,30.00
2019-04-03T02:16:25.887Z,30.10
2019-04-03T02:18:57.041Z,30.20
2019-04-03T02:21:35.136Z,30.30
2019-04-03T02:24:06.193Z,30.40
2019-04-03T02:33:17.829Z,30.50
2019-04-03T02:35:54.634Z,30.60
2019-04-03T02:38:25.795Z,30.80
2019-04-03T02:41:03.290Z,30.90
2019-04-03T02:43:34.617Z,31.00
2019-04-03T02:46:05.886Z,31.10
2019-04-03T02:48:38.293Z,31.20
2019-04-03T02:51:20.465Z,31.20
2019-04-03T02:53:52.227Z,31.30
2019-04-03T02:56:23.766Z,31.30
2019-04-03T02:58:55.167Z,31.30
2019-04-03T03:01:27.013Z,31.40
2019-04-03T03:04:08.692Z,31.50
2019-04-03T03:06:40.298Z,31.60
2019-04-03T03:09:13.511Z,31.60
2019-04-03T03:11:45.589Z,31.70
2019-04-03T03:27:41.665Z,32.00
2019-04-03T03:30:34.010Z,32.10
2019-04-03T03:32:48.482Z,32.10
2019-04-03T03:42:34.341Z,32.40
2019-04-03T03:45:10.207Z,32.50
2019-04-03T03:47:42.203Z,32.60
2019-04-03T03:50:14.352Z,32.60
2019-04-03T03:52:45.322Z,32.70
2019-04-03T03:55:16.358Z,32.80
2019-04-03T03:57:48.719Z,32.80
2019-04-03T04:00:22.545Z,32.80
2019-04-03T04:02:53.059Z,32.80
2019-04-03T04:05:24.159Z,32.90
2019-04-03T04:07:55.622Z,32.80
2019-04-03T04:10:35.470Z,32.80
2019-04-03T04:13:03.714Z,32.70
2019-04-03T04:15:39.165Z,32.70
2019-04-03T04:18:13.790Z,32.60
2019-04-03T04:20:46.256Z,32.60
2019-04-03T04:23:17.238Z,32.60
2019-04-03T04:25:50.443Z,32.60
2019-04-03T04:28:22.465Z,32.70
2019-04-03T04:30:53.991Z,32.80
2019-04-03T04:33:24.778Z,32.80
2019-04-03T04:35:55.849Z,32.80
2019-04-03T04:38:28.507Z,32.80
2019-04-03T04:41:01.840Z,32.90
2019-04-03T04:43:32.580Z,32.90
2019-04-03T04:46:03.590Z,33.00
2019-04-03T04:48:34.916Z,33.00
2019-04-03T04:51:06.323Z,33.10
2019-04-03T04:53:37.310Z,33.10
2019-04-03T04:56:08.710Z,33.10
2019-04-03T04:58:42.543Z,33.10
2019-04-03T05:01:17.037Z,33.10
2019-04-03T05:10:03.934Z,33.20
2019-04-03T05:12:39.132Z,33.20
2019-04-03T05:15:10.967Z,33.10
2019-04-03T05:17:41.758Z,33.10
2019-04-03T05:20:13.736Z,33.10
2019-04-03T05:22:44.950Z,33.10
2019-04-03T05:25:15.880Z,33.00
2019-04-03T05:27:46.663Z,32.90
2019-04-03T05:30:20.773Z,32.90
2019-04-03T05:32:53.095Z,32.90
2019-04-03T05:35:24.105Z,32.90
2019-04-03T05:37:56.167Z,32.90
2019-04-03T05:40:28.076Z,33.00
2019-04-03T05:43:00.143Z,33.00
2019-04-03T05:45:34.577Z,33.20
2019-04-03T05:48:05.031Z,33.30
2019-04-03T05:50:37.668Z,33.40
2019-04-03T05:53:08.756Z,33.50
2019-04-03T05:55:41.003Z,33.60
2019-04-03T05:58:12.193Z,33.70
2019-04-03T06:00:44.211Z,33.80
2019-04-03T06:03:15.910Z,33.90
2019-04-03T06:05:48.907Z,34.00
2019-04-03T06:08:20.721Z,34.10
2019-04-03T06:10:52.921Z,34.10
2019-04-03T06:13:23.787Z,34.00
2019-04-03T06:15:58.101Z,34.00
2019-04-03T06:18:32.448Z,33.90
2019-04-03T06:21:03.545Z,33.80
2019-04-03T06:23:34.656Z,33.80
2019-04-03T06:26:05.659Z,33.80
2019-04-03T06:28:36.682Z,33.70
2019-04-03T06:31:08.674Z,33.70
2019-04-03T06:33:40.006Z,33.70
2019-04-03T06:36:13.676Z,33.70
2019-04-03T06:38:46.403Z,33.70
2019-04-03T06:41:21.699Z,33.70
2019-04-03T06:43:55.408Z,33.80
2019-04-03T06:46:28.916Z,33.80
2019-04-03T06:48:59.139Z,33.90
2019-04-03T06:51:30.080Z,33.90
2019-04-03T06:54:02.561Z,33.90
2019-04-03T06:56:36.427Z,33.90
2019-04-03T06:59:09.452Z,33.90
2019-04-03T07:01:40.674Z,33.90
2019-04-03T07:04:12.050Z,33.90
2019-04-03T07:06:45.229Z,33.90
2019-04-03T07:09:22.779Z,33.90
2019-04-03T07:11:48.926Z,33.80
2019-04-03T07:14:20.098Z,33.70
2019-04-03T07:16:51.391Z,33.60
2019-04-03T07:19:25.316Z,33.50
2019-04-03T07:21:56.427Z,33.30
2019-04-03T07:24:28.126Z,33.10
2019-04-03T07:26:58.992Z,32.80
2019-04-03T07:29:44.424Z,32.60
2019-04-03T07:38:53.621Z,31.80
2019-04-03T07:41:28.688Z,31.40
2019-04-03T07:43:59.346Z,31.10
2019-04-03T07:46:33.259Z,30.90
2019-04-03T07:49:13.662Z,30.70
2019-04-03T07:51:47.014Z,30.50
2019-04-03T07:54:26.595Z,30.40
2019-04-03T07:56:59.691Z,30.20
2019-04-03T07:59:38.019Z,30.10
2019-04-03T08:02:07.509Z,30.00
2019-04-03T08:04:38.930Z,29.80
2019-04-03T08:07:10.060Z,29.70
2019-04-03T08:09:43.032Z,29.50
2019-04-03T08:12:14.023Z,29.30
2019-04-03T08:14:45.382Z,29.10
2019-04-03T08:17:18.094Z,29.00
2019-04-03T08:19:48.942Z,28.90
2019-04-03T08:22:20.102Z,28.70
2019-04-03T08:24:53.619Z,28.40
2019-04-03T08:27:35.749Z,28.20
2019-04-03T08:30:15.177Z,27.90
2019-04-03T08:32:47.339Z,27.70
2019-04-03T08:35:21.778Z,27.60
2019-04-03T08:37:51.299Z,27.50
2019-04-03T08:40:23.421Z,27.40
2019-04-03T08:42:59.289Z,27.40
2019-04-03T08:45:27.456Z,27.40
2019-04-03T08:48:05.952Z,27.30
2019-04-03T08:50:58.017Z,27.30
2019-04-03T08:53:29.255Z,27.30
2019-04-03T08:56:00.862Z,27.30
2019-04-03T08:58:33.221Z,27.30
2019-04-03T09:01:10.737Z,27.30
2019-04-03T09:03:49.795Z,27.30
2019-04-03T09:06:22.393Z,27.30
2019-04-03T09:08:59.243Z,27.30
2019-04-03T09:11:31.851Z,27.30
2019-04-03T09:14:02.951Z,27.30
2019-04-03T09:23:58.371Z,27.30
2019-04-03T09:26:29.420Z,27.30
2019-04-03T09:29:12.965Z,27.40
2019-04-03T09:31:43.238Z,27.50
2019-04-03T09:34:15.057Z,27.50
2019-04-03T09:36:46.447Z,27.50
2019-04-03T09:39:20.435Z,27.50
2019-04-03T09:41:51.659Z,27.50
2019-04-03T09:44:25.473Z,27.50
2019-04-03T09:46:56.769Z,27.50
2019-04-03T09:49:29.897Z,27.50
2019-04-03T09:52:00.986Z,27.50
2019-04-03T09:54:35.733Z,27.50
2019-04-03T09:57:07.822Z,27.50
2019-04-03T09:59:43.147Z,27.50
2019-04-03T10:02:19.208Z,27.50
2019-04-03T10:04:50.056Z,27.60
2019-04-03T10:14:27.134Z,27.80
2019-04-03T10:16:57.689Z,27.80
2019-04-03T10:19:29.531Z,27.80
2019-04-03T10:22:00.808Z,27.80
2019-04-03T10:24:34.048Z,27.90
2019-04-03T10:27:05.147Z,27.90
2019-04-03T10:29:36.492Z,28.00
2019-04-03T10:32:07.361Z,28.00
2019-04-03T10:34:39.519Z,28.00
2019-04-03T10:37:12.211Z,28.00
2019-04-03T10:39:46.372Z,28.00
2019-04-03T10:42:18.067Z,27.90
2019-04-03T10:44:49.571Z,27.90
2019-04-03T10:47:24.696Z,27.80
2019-04-03T10:49:52.850Z,27.80
2019-04-03T10:52:24.786Z,27.80
2019-04-03T10:54:57.294Z,27.90
2019-04-03T10:57:28.571Z,27.80
2019-04-03T10:59:59.582Z,27.80
2019-04-03T11:02:33.429Z,27.80
2019-04-03T11:05:05.047Z,27.80
2019-04-03T11:07:40.131Z,27.80
2019-04-03T11:10:11.997Z,27.80
2019-04-03T11:12:45.977Z,27.80
2019-04-03T11:15:18.204Z,27.80
2019-04-03T11:17:50.040Z,27.80
2019-04-03T11:20:21.763Z,27.80
2019-04-03T11:23:04.070Z,27.80
2019-04-03T11:25:29.011Z,27.80
2019-04-03T11:28:05.122Z,27.80
2019-04-03T11:30:34.245Z,27.80
2019-04-03T11:33:05.927Z,27.80
2019-04-03T11:35:37.133Z,27.80
2019-04-03T11:38:14.142Z,27.80
2019-04-03T11:40:43.034Z,27.80
2019-04-03T11:43:14.308Z,27.80
2019-04-03T11:45:46.225Z,27.80
2019-04-03T11:48:17.490Z,27.80
2019-04-03T11:50:49.166Z,27.80
2019-04-03T11:53:20.464Z,27.80
2019-04-03T11:55:51.359Z,27.80
2019-04-03T11:58:26.799Z,27.80
2019-04-03T12:00:57.672Z,27.80
2019-04-03T12:03:28.824Z,27.90
2019-04-03T12:05:59.773Z,27.90
2019-04-03T12:08:35.930Z,27.90
2019-04-03T12:11:07.460Z,27.90
2019-04-03T12:13:38.598Z,27.90
2019-04-03T12:16:09.490Z,27.90
2019-04-03T12:18:40.500Z,28.00
2019-04-03T12:21:13.964Z,28.00
2019-04-03T12:23:44.195Z,28.00
2019-04-03T12:26:15.478Z,28.00
2019-04-03T12:28:46.892Z,28.00
2019-04-03T12:31:19.279Z,28.00
2019-04-03T12:33:56.044Z,28.00
2019-04-03T12:36:25.486Z,28.00
2019-04-03T12:38:56.884Z,28.00
2019-04-03T12:41:29.073Z,28.00
2019-04-03T12:43:59.779Z,28.00
2019-04-03T12:46:33.445Z,27.90
2019-04-03T12:49:06.582Z,27.90
2019-04-03T12:51:39.756Z,27.90
2019-04-03T12:54:13.468Z,27.90
2019-04-03T12:56:45.241Z,27.80
2019-04-03T12:59:16.151Z,27.90
2019-04-03T13:01:49.238Z,27.80
2019-04-03T13:04:21.109Z,27.90
2019-04-03T13:06:52.228Z,27.80
2019-04-03T13:09:23.103Z,27.80
2019-04-03T13:11:53.995Z,27.80
2019-04-03T13:14:27.160Z,27.80
2019-04-03T13:16:59.475Z,27.80
2019-04-03T13:19:30.801Z,27.80
2019-04-03T13:22:01.831Z,27.80
2019-04-03T13:24:32.914Z,27.80
2019-04-03T13:27:04.373Z,27.80
2019-04-03T13:29:38.307Z,27.80
2019-04-03T13:32:08.752Z,27.70
2019-04-03T13:34:41.506Z,27.70
2019-04-03T13:37:12.113Z,27.70
2019-04-03T13:39:43.004Z,27.70
2019-04-03T13:42:14.654Z,27.70
2019-04-03T13:44:45.673Z,27.70
2019-04-03T13:47:16.451Z,27.60
2019-04-03T13:49:50.133Z,27.60
2019-04-03T13:52:20.155Z,27.60
2019-04-03T13:54:52.310Z,27.60
2019-04-03T13:57:24.085Z,27.60
2019-04-03T13:59:58.460Z,27.50
2019-04-03T14:02:27.738Z,27.50
2019-04-03T14:04:58.851Z,27.50
2019-04-03T14:07:31.618Z,27.40
2019-04-03T14:10:03.266Z,27.40
2019-04-03T14:12:36.637Z,27.40
2019-04-03T14:15:08.522Z,27.40
2019-04-03T14:17:39.746Z,27.40
2019-04-03T14:20:12.000Z,27.40
2019-04-03T14:22:43.220Z,27.40
2019-04-03T14:25:20.982Z,27.40
2019-04-03T14:27:47.718Z,27.40
2019-04-03T14:30:20.295Z,27.40
2019-04-03T14:32:53.394Z,27.40
2019-04-03T14:35:45.427Z,27.40
2019-04-03T14:37:59.450Z,27.40
2019-04-03T14:40:28.576Z,27.40
2019-04-03T14:43:00.199Z,27.40
2019-04-03T14:45:32.464Z,27.40
2019-04-03T14:48:03.262Z,27.40
2019-04-03T14:50:36.503Z,27.40
2019-04-03T14:53:07.283Z,27.40
2019-04-03T14:55:47.211Z,27.40
2019-04-03T14:58:11.064Z,27.40
2019-04-03T15:00:42.341Z,27.40
2019-04-03T15:03:13.026Z,27.40
2019-04-03T15:05:47.307Z,27.40
2019-04-03T15:08:20.227Z,27.40
2019-04-03T15:10:52.166Z,27.40
2019-04-03T15:13:23.657Z,27.50
2019-04-03T15:15:54.559Z,27.40
2019-04-03T15:18:25.809Z,27.50
2019-04-03T15:21:00.128Z,27.50
2019-04-03T15:23:31.092Z,27.50
2019-04-03T15:26:06.020Z,27.50
2019-04-03T15:28:36.557Z,27.50
2019-04-03T15:31:07.707Z,27.50
2019-04-03T15:33:40.104Z,27.50
2019-04-03T15:36:12.295Z,27.50
2019-04-03T15:38:45.294Z,27.50
2019-04-03T15:41:16.180Z,27.50
2019-04-03T15:43:51.258Z,27.50
2019-04-03T15:46:22.275Z,27.50
2019-04-03T15:48:55.269Z,27.50
2019-04-03T15:51:26.366Z,27.50
2019-04-03T15:53:59.625Z,27.50
2019-04-03T15:56:30.035Z,27.50
2019-04-03T15:59:01.387Z,27.50
2019-04-03T16:01:32.356Z,27.50
2019-04-03T16:04:03.419Z,27.50
2019-04-03T16:06:35.937Z,27.50
2019-04-03T16:09:09.204Z,27.50
2019-04-03T16:11:40.101Z,27.50
2019-04-03T16:14:11.463Z,27.50
2019-04-03T16:16:42.728Z,27.50
2019-04-03T16:19:13.977Z,27.50
2019-04-03T16:21:44.963Z,27.40
2019-04-03T16:24:16.040Z,27.50
2019-04-03T16:26:47.116Z,27.50
2019-04-03T16:29:17.981Z,27.40
2019-04-03T16:31:51.369Z,27.40
2019-04-03T16:34:21.826Z,27.40
2019-04-03T16:36:53.049Z,27.40
2019-04-03T16:39:23.994Z,27.40
2019-04-03T16:41:55.069Z,27.40
2019-04-03T16:44:26.889Z,27.30
2019-04-03T16:46:58.583Z,27.30
2019-04-03T16:49:30.624Z,27.30
2019-04-03T16:52:03.481Z,27.30
2019-04-03T16:54:34.318Z,27.40
2019-04-03T16:57:05.707Z,27.30
2019-04-03T16:59:37.297Z,27.30
2019-04-03T17:02:08.661Z,27.30
2019-04-03T17:04:39.897Z,27.30
2019-04-03T17:07:10.723Z,27.20
2019-04-03T17:09:41.886Z,27.20
2019-04-03T17:12:13.007Z,27.20
2019-04-03T17:14:44.117Z,27.20
2019-04-03T17:17:15.059Z,27.20
2019-04-03T17:19:49.908Z,27.20
2019-04-03T17:22:18.930Z,27.10
2019-04-03T17:24:53.826Z,27.10
2019-04-03T17:27:22.071Z,27.20
2019-04-03T17:29:53.284Z,27.10
2019-04-03T17:32:24.350Z,27.10
2019-04-03T17:34:55.494Z,27.10
2019-04-03T17:37:29.368Z,27.10
2019-04-03T17:39:59.074Z,27.10
2019-04-03T17:42:32.406Z,27.10
2019-04-03T17:45:04.230Z,27.10
2019-04-03T17:47:35.444Z,27.10
2019-04-03T17:50:08.296Z,27.10
2019-04-03T17:52:39.339Z,27.00
2019-04-03T17:55:11.815Z,27.00
2019-04-03T17:57:44.795Z,27.00
2019-04-03T18:00:20.622Z,27.00
2019-04-03T18:02:51.036Z,27.00
2019-04-03T18:05:22.091Z,27.00
2019-04-03T18:07:52.944Z,27.00
2019-04-03T18:10:24.301Z,27.00
2019-04-03T18:12:55.229Z,26.90
2019-04-03T18:15:27.541Z,26.90
2019-04-03T18:17:58.325Z,27.00
2019-04-03T18:20:29.453Z,27.00
2019-04-03T18:23:00.468Z,26.90
2019-04-03T18:25:31.317Z,26.90
2019-04-03T18:28:04.678Z,26.90
2019-04-03T18:30:34.606Z,26.90
2019-04-03T18:33:06.118Z,26.90
2019-04-03T18:35:37.304Z,26.80
2019-04-03T18:38:08.663Z,26.80
2019-04-03T18:40:39.724Z,26.80
2019-04-03T18:43:10.773Z,26.70
2019-04-03T18:45:41.704Z,26.60
2019-04-03T18:48:12.626Z,26.60
2019-04-03T18:50:43.689Z,26.60
2019-04-03T18:53:14.868Z,26.60
2019-04-03T18:55:45.880Z,26.60
2019-04-03T18:58:16.642Z,26.60
2019-04-03T19:00:47.624Z,26.50
2019-04-03T19:03:18.856Z,26.50
2019-04-03T19:05:49.692Z,26.50
2019-04-03T19:08:20.504Z,26.50
2019-04-03T19:11:01.512Z,26.50
2019-04-03T19:13:23.519Z,26.40
2019-04-03T19:15:54.701Z,26.40
2019-04-03T19:18:25.596Z,26.40
2019-04-03T19:20:56.366Z,26.50
2019-04-03T19:23:27.666Z,26.50
2019-04-03T19:25:59.996Z,26.50
2019-04-03T19:28:34.385Z,26.50
2019-04-03T19:31:04.094Z,26.40
2019-04-03T19:33:35.167Z,26.40
2019-04-03T19:36:06.005Z,26.40
2019-04-03T19:38:37.134Z,26.40
2019-04-03T19:41:08.297Z,26.40
2019-04-03T19:43:39.094Z,26.30
2019-04-03T19:46:10.332Z,26.30
2019-04-03T19:48:41.218Z,26.30
2019-04-03T19:51:12.217Z,26.20
2019-04-03T19:53:44.621Z,26.20
2019-04-03T19:56:16.055Z,26.20
2019-04-03T19:58:47.094Z,26.20
2019-04-03T20:01:18.077Z,26.20
2019-04-03T20:03:49.003Z,26.20
2019-04-03T20:06:22.620Z,26.20
2019-04-03T20:08:52.675Z,26.10
2019-04-03T20:11:23.478Z,26.10
2019-04-03T20:13:54.541Z,26.10
2019-04-03T20:16:25.585Z,26.10
2019-04-03T20:18:57.467Z,26.10
2019-04-03T20:21:28.596Z,26.10
2019-04-03T20:23:59.421Z,26.10
2019-04-03T20:26:30.554Z,26.00
2019-04-03T20:29:02.303Z,26.00
2019-04-03T20:31:35.431Z,26.00
2019-04-03T20:34:06.224Z,26.00
2019-04-03T20:36:37.219Z,26.00
2019-04-03T20:39:10.373Z,26.00
2019-04-03T20:41:41.421Z,26.00
2019-04-03T20:44:12.785Z,26.00
2019-04-03T20:46:44.149Z,26.00
2019-04-03T20:49:16.447Z,25.90
2019-04-03T20:51:48.725Z,26.00
2019-04-03T20:54:21.389Z,26.00
2019-04-03T20:56:58.078Z,25.90
2019-04-03T20:59:26.128Z,25.90
2019-04-03T21:01:57.323Z,25.90
2019-04-03T21:04:28.313Z,25.90
2019-04-03T21:06:59.221Z,25.80
2019-04-03T21:09:30.580Z,25.90
2019-04-03T21:12:03.102Z,25.90
2019-04-03T21:14:34.288Z,25.90
2019-04-03T21:17:04.986Z,25.90
2019-04-03T21:19:36.082Z,25.90
2019-04-03T21:22:07.069Z,25.90
2019-04-03T21:24:38.152Z,25.90
2019-04-03T21:27:09.425Z,25.90
2019-04-03T21:29:40.384Z,25.80
2019-04-03T21:32:11.179Z,25.80
2019-04-03T21:34:42.927Z,25.90
2019-04-03T21:37:14.210Z,25.80
2019-04-03T21:39:45.394Z,25.80
2019-04-03T21:42:16.296Z,25.80
2019-04-03T21:44:47.104Z,25.80
2019-04-03T21:47:18.068Z,25.80
2019-04-03T21:49:49.186Z,25.80
2019-04-03T21:52:20.941Z,25.80
2019-04-03T21:54:52.825Z,25.80
2019-04-03T21:57:23.900Z,25.80
2019-04-03T21:59:54.716Z,25.80
2019-04-03T22:02:25.577Z,25.80
2019-04-03T22:04:56.546Z,25.80
2019-04-03T22:07:28.564Z,25.80
2019-04-03T22:10:01.940Z,25.80
2019-04-03T22:12:34.839Z,25.80
2019-04-03T22:15:08.392Z,25.80
2019-04-03T22:17:39.287Z,25.80
2019-04-03T22:20:10.436Z,25.80
2019-04-03T22:22:41.478Z,25.80
2019-04-03T22:25:12.594Z,25.80
2019-04-03T22:27:43.718Z,25.80
2019-04-03T22:30:19.988Z,25.80
2019-04-03T22:32:51.456Z,25.80
2019-04-03T22:35:22.991Z,25.80
2019-04-03T22:37:53.765Z,25.80
2019-04-03T22:40:24.577Z,25.80
2019-04-03T22:42:55.517Z,25.80
2019-04-03T22:45:26.528Z,25.80
2019-04-03T22:47:57.513Z,25.80
2019-04-03T22:50:28.571Z,25.80
2019-04-03T22:53:00.651Z,25.80
2019-04-03T22:55:32.365Z,25.80
2019-04-03T22:58:03.549Z,25.80
2019-04-03T23:00:34.663Z,25.70
2019-04-03T23:12:46.875Z,25.60
2019-04-03T23:15:17.795Z,25.60
2019-04-03T23:17:48.762Z,25.60
2019-04-03T23:20:20.080Z,25.60
2019-04-03T23:22:53.132Z,25.60
2019-04-03T23:25:24.057Z,25.60
2019-04-03T23:27:57.976Z,25.60
2019-04-03T23:30:30.218Z,25.60
2019-04-03T23:33:01.441Z,25.70
2019-04-03T23:35:32.438Z,25.70
2019-04-03T23:38:03.603Z,25.70
2019-04-03T23:40:34.628Z,25.70
2019-04-03T23:43:08.527Z,25.70
2019-04-03T23:45:38.651Z,25.70
2019-04-03T23:48:09.883Z,25.80
2019-04-03T23:50:40.754Z,25.80
2019-04-03T23:53:11.673Z,25.80
2019-04-03T23:55:42.515Z,25.90
2019-04-03T23:58:13.443Z,25.90
